Terminal Aerodrome Forecast
Issued by NWS Detroit/Pontiac, MI

Home | Current Version | Previous Version | Text Only | Print | Product List | Glossary On
Versions: 1 2 3 4 5 6 7 8 9 10 11 12 13 14 15 16 17 18 19 20 21 22 23 24 25 26 27
000
FTUS43 KDTX 271511 AAA
TAFDTW
TAF AMD
KDTW 271511Z 2715/2818 28008KT P6SM FEW025 BKN040
      TEMPO 2717/2720 5SM -SHSN SCT025 OVC040
     FM272200 32011G19KT P6SM BKN035 OVC050
     FM280300 29008KT P6SM SCT050
     FM281400 24006KT P6SM OVC150=

USA.gov is the U.S. government's official web portal to all federal, state and local government web resources and services.